Time;durP1;ratioP1;P1;durP2;ratioP2;P2;SDS_P1;SDS_P2;PMS_P1;PMS_P2;Temp;Humidity;BMP_temperature;BMP_pressure;BME280_temperature;BME280_humidity;BME280_pressure;Samples;Min_cycle;Max_cycle;Signal;HPM_P1;HPM_P2
2024/02/28 00:02:04;;;;;;;18.3;12.3;;;;;;;;;;;;;
2024/02/28 00:04:29;;;;;;;21.2;13.3;;;;;;;;;;;;;
2024/02/28 00:06:54;;;;;;;23;13.9;;;;;;;;;;;;;
2024/02/28 00:09:19;;;;;;;19.4;12.8;;;;;;;;;;;;;
2024/02/28 00:11:45;;;;;;;21.5;13.6;;;;;;;;;;;;;
2024/02/28 00:14:09;;;;;;;23.1;14.2;;;;;;;;;;;;;
2024/02/28 00:16:37;;;;;;;22.6;13.8;;;;;;;;;;;;;
2024/02/28 00:19:02;;;;;;;22.7;14.4;;;;;;;;;;;;;
2024/02/28 00:21:25;;;;;;;21.3;13.8;;;;;;;;;;;;;
2024/02/28 00:23:50;;;;;;;20.6;12.8;;;;;;;;;;;;;
2024/02/28 00:26:15;;;;;;;16.9;11.6;;;;;;;;;;;;;
2024/02/28 00:28:40;;;;;;;18.3;11.8;;;;;;;;;;;;;
2024/02/28 00:31:05;;;;;;;18.5;11.2;;;;;;;;;;;;;
2024/02/28 00:33:30;;;;;;;17.2;11.8;;;;;;;;;;;;;
2024/02/28 00:35:55;;;;;;;18.4;11.1;;;;;;;;;;;;;
2024/02/28 00:38:20;;;;;;;21;12.1;;;;;;;;;;;;;
2024/02/28 00:40:45;;;;;;;23;13.2;;;;;;;;;;;;;
2024/02/28 00:43:11;;;;;;;22.5;12.8;;;;;;;;;;;;;
2024/02/28 00:45:37;;;;;;;22.7;12.3;;;;;;;;;;;;;
2024/02/28 00:48:01;;;;;;;20.4;12.4;;;;;;;;;;;;;
2024/02/28 00:50:26;;;;;;;19.1;12;;;;;;;;;;;;;
2024/02/28 00:52:51;;;;;;;18.5;11.7;;;;;;;;;;;;;
2024/02/28 00:55:16;;;;;;;19.7;12;;;;;;;;;;;;;
2024/02/28 00:57:42;;;;;;;19.7;12.1;;;;;;;;;;;;;
2024/02/28 01:00:08;;;;;;;17.5;11.4;;;;;;;;;;;;;
2024/02/28 01:02:32;;;;;;;19.8;11.7;;;;;;;;;;;;;
2024/02/28 01:04:57;;;;;;;19.1;12.2;;;;;;;;;;;;;
2024/02/28 01:07:22;;;;;;;17;11.2;;;;;;;;;;;;;
2024/02/28 01:09:47;;;;;;;17.7;11;;;;;;;;;;;;;
2024/02/28 01:12:12;;;;;;;18.3;10.3;;;;;;;;;;;;;
2024/02/28 01:14:37;;;;;;;19.3;11.6;;;;;;;;;;;;;
2024/02/28 01:17:03;;;;;;;19;11.4;;;;;;;;;;;;;
2024/02/28 01:19:27;;;;;;;17.6;11.8;;;;;;;;;;;;;
2024/02/28 01:21:53;;;;;;;18.3;11.9;;;;;;;;;;;;;
2024/02/28 01:24:18;;;;;;;19;11.4;;;;;;;;;;;;;
2024/02/28 01:26:43;;;;;;;16.3;11;;;;;;;;;;;;;
2024/02/28 01:29:08;;;;;;;18;11.4;;;;;;;;;;;;;
2024/02/28 01:31:33;;;;;;;18.3;11.2;;;;;;;;;;;;;
2024/02/28 01:33:58;;;;;;;19.2;11.7;;;;;;;;;;;;;
2024/02/28 01:36:24;;;;;;;19.1;11.6;;;;;;;;;;;;;
2024/02/28 01:38:49;;;;;;;18.5;12.4;;;;;;;;;;;;;
2024/02/28 01:41:14;;;;;;;18.5;12.5;;;;;;;;;;;;;
2024/02/28 01:43:39;;;;;;;20;12;;;;;;;;;;;;;
2024/02/28 01:46:04;;;;;;;17.6;11.5;;;;;;;;;;;;;
2024/02/28 01:48:29;;;;;;;19.4;12.7;;;;;;;;;;;;;
2024/02/28 01:50:54;;;;;;;18.6;12.7;;;;;;;;;;;;;
2024/02/28 01:53:20;;;;;;;19.4;12.8;;;;;;;;;;;;;
2024/02/28 01:55:45;;;;;;;19;12.4;;;;;;;;;;;;;
2024/02/28 01:58:10;;;;;;;21.6;12.8;;;;;;;;;;;;;
2024/02/28 02:00:35;;;;;;;20.3;13;;;;;;;;;;;;;
2024/02/28 02:03:00;;;;;;;19.9;12.6;;;;;;;;;;;;;
2024/02/28 02:05:25;;;;;;;20.3;12.5;;;;;;;;;;;;;
2024/02/28 02:07:50;;;;;;;19.7;13.1;;;;;;;;;;;;;
2024/02/28 02:10:15;;;;;;;20.6;13.4;;;;;;;;;;;;;
2024/02/28 02:12:40;;;;;;;20.5;13;;;;;;;;;;;;;
2024/02/28 02:15:05;;;;;;;20.4;13.5;;;;;;;;;;;;;
2024/02/28 02:17:31;;;;;;;19;12.6;;;;;;;;;;;;;
2024/02/28 02:19:56;;;;;;;20.1;13.2;;;;;;;;;;;;;
2024/02/28 02:22:21;;;;;;;21.2;13.3;;;;;;;;;;;;;
2024/02/28 02:24:46;;;;;;;19.1;12.6;;;;;;;;;;;;;
2024/02/28 02:27:12;;;;;;;19.7;12.3;;;;;;;;;;;;;
2024/02/28 02:29:36;;;;;;;19.7;12.8;;;;;;;;;;;;;
2024/02/28 02:32:01;;;;;;;20;12.9;;;;;;;;;;;;;
2024/02/28 02:34:27;;;;;;;19.5;12.9;;;;;;;;;;;;;
2024/02/28 02:36:52;;;;;;;18.7;12.1;;;;;;;;;;;;;
2024/02/28 02:39:17;;;;;;;21.1;13.1;;;;;;;;;;;;;
2024/02/28 02:41:42;;;;;;;22.2;13;;;;;;;;;;;;;
2024/02/28 02:44:07;;;;;;;20.9;13.3;;;;;;;;;;;;;
2024/02/28 02:46:32;;;;;;;19.9;12.7;;;;;;;;;;;;;
2024/02/28 02:48:57;;;;;;;19.7;12.5;;;;;;;;;;;;;
2024/02/28 02:51:23;;;;;;;17.5;12.4;;;;;;;;;;;;;
2024/02/28 02:53:48;;;;;;;21.6;13.4;;;;;;;;;;;;;
2024/02/28 02:56:13;;;;;;;19.7;12.5;;;;;;;;;;;;;
2024/02/28 02:58:38;;;;;;;19.7;13.1;;;;;;;;;;;;;
2024/02/28 03:01:03;;;;;;;18.5;13;;;;;;;;;;;;;
2024/02/28 03:03:28;;;;;;;22.3;12.8;;;;;;;;;;;;;
2024/02/28 03:05:53;;;;;;;19.4;12.9;;;;;;;;;;;;;
2024/02/28 03:08:18;;;;;;;20.1;13.2;;;;;;;;;;;;;
2024/02/28 03:10:44;;;;;;;22.7;13;;;;;;;;;;;;;
2024/02/28 03:13:09;;;;;;;18.9;12.8;;;;;;;;;;;;;
2024/02/28 03:15:34;;;;;;;20.8;13.5;;;;;;;;;;;;;
2024/02/28 03:17:59;;;;;;;18.6;12.9;;;;;;;;;;;;;
2024/02/28 03:20:25;;;;;;;20;12.9;;;;;;;;;;;;;
2024/02/28 03:22:49;;;;;;;18.3;12.9;;;;;;;;;;;;;
2024/02/28 03:25:15;;;;;;;19.5;12.7;;;;;;;;;;;;;
2024/02/28 03:27:40;;;;;;;18.5;12.7;;;;;;;;;;;;;
2024/02/28 03:30:05;;;;;;;18.2;12.8;;;;;;;;;;;;;
2024/02/28 03:32:30;;;;;;;19.7;13.3;;;;;;;;;;;;;
2024/02/28 03:34:55;;;;;;;18.8;13.1;;;;;;;;;;;;;
2024/02/28 03:37:20;;;;;;;20.8;13.9;;;;;;;;;;;;;
2024/02/28 03:39:45;;;;;;;20.6;13.2;;;;;;;;;;;;;
2024/02/28 03:42:10;;;;;;;20.7;13.7;;;;;;;;;;;;;
2024/02/28 03:44:35;;;;;;;19.7;12.7;;;;;;;;;;;;;
2024/02/28 03:47:00;;;;;;;21.6;14.5;;;;;;;;;;;;;
2024/02/28 03:49:25;;;;;;;23.1;14.2;;;;;;;;;;;;;
2024/02/28 03:51:51;;;;;;;19.4;13;;;;;;;;;;;;;
2024/02/28 03:54:16;;;;;;;20.7;12.8;;;;;;;;;;;;;
2024/02/28 03:56:41;;;;;;;21.7;13.4;;;;;;;;;;;;;
2024/02/28 03:59:06;;;;;;;20.7;12.2;;;;;;;;;;;;;
2024/02/28 04:02:42;;;;;;;19.2;12.9;;;;;;;;;;;;;
2024/02/28 04:05:07;;;;;;;22.4;13.5;;;;;;;;;;;;;
2024/02/28 04:07:32;;;;;;;18.7;12.9;;;;;;;;;;;;;
2024/02/28 04:09:57;;;;;;;21.8;12.7;;;;;;;;;;;;;
2024/02/28 04:12:22;;;;;;;18.8;12.7;;;;;;;;;;;;;
2024/02/28 04:14:47;;;;;;;19.3;12.5;;;;;;;;;;;;;
2024/02/28 04:17:12;;;;;;;21;13.4;;;;;;;;;;;;;
2024/02/28 04:19:39;;;;;;;19.2;13.1;;;;;;;;;;;;;
2024/02/28 04:22:02;;;;;;;20.6;13.1;;;;;;;;;;;;;
2024/02/28 04:24:28;;;;;;;18.5;12.9;;;;;;;;;;;;;
2024/02/28 04:26:53;;;;;;;21.3;13.2;;;;;;;;;;;;;
2024/02/28 04:29:19;;;;;;;20.5;13;;;;;;;;;;;;;
2024/02/28 04:31:43;;;;;;;19.5;13.5;;;;;;;;;;;;;
2024/02/28 04:34:08;;;;;;;20;13.4;;;;;;;;;;;;;
2024/02/28 04:36:33;;;;;;;20.5;13.3;;;;;;;;;;;;;
2024/02/28 04:39:04;;;;;;;20.5;13.6;;;;;;;;;;;;;
2024/02/28 04:41:23;;;;;;;18.8;12.5;;;;;;;;;;;;;
2024/02/28 04:43:51;;;;;;;20.7;12.6;;;;;;;;;;;;;
2024/02/28 04:46:14;;;;;;;19.9;12.4;;;;;;;;;;;;;
2024/02/28 04:48:39;;;;;;;18.9;12.8;;;;;;;;;;;;;
2024/02/28 04:51:04;;;;;;;21.4;13.8;;;;;;;;;;;;;
2024/02/28 04:53:29;;;;;;;22;12.9;;;;;;;;;;;;;
2024/02/28 04:55:54;;;;;;;18.1;12.8;;;;;;;;;;;;;
2024/02/28 04:58:19;;;;;;;20.5;13;;;;;;;;;;;;;
2024/02/28 05:00:45;;;;;;;19.8;12.9;;;;;;;;;;;;;
2024/02/28 05:03:10;;;;;;;18.8;12.9;;;;;;;;;;;;;
2024/02/28 05:05:35;;;;;;;19.4;13.3;;;;;;;;;;;;;
2024/02/28 05:08:00;;;;;;;21.7;13.8;;;;;;;;;;;;;
2024/02/28 05:10:25;;;;;;;18.8;12.4;;;;;;;;;;;;;
2024/02/28 05:12:50;;;;;;;20.9;12.4;;;;;;;;;;;;;
2024/02/28 05:15:16;;;;;;;18.7;12.2;;;;;;;;;;;;;
2024/02/28 05:17:41;;;;;;;16.5;12;;;;;;;;;;;;;
2024/02/28 05:20:06;;;;;;;18.2;11.8;;;;;;;;;;;;;
2024/02/28 05:22:31;;;;;;;20.8;13.2;;;;;;;;;;;;;
2024/02/28 05:24:56;;;;;;;18.8;12.5;;;;;;;;;;;;;
2024/02/28 05:27:21;;;;;;;21.3;12.7;;;;;;;;;;;;;
2024/02/28 05:29:46;;;;;;;20.8;13;;;;;;;;;;;;;
2024/02/28 05:32:11;;;;;;;22;14;;;;;;;;;;;;;
2024/02/28 05:34:36;;;;;;;20.1;13.3;;;;;;;;;;;;;
2024/02/28 05:37:02;;;;;;;21.1;13.5;;;;;;;;;;;;;
2024/02/28 05:39:27;;;;;;;19.6;13.1;;;;;;;;;;;;;
2024/02/28 05:41:52;;;;;;;20.2;13.8;;;;;;;;;;;;;
2024/02/28 05:44:17;;;;;;;20.1;13.1;;;;;;;;;;;;;
2024/02/28 05:46:42;;;;;;;24.2;14.5;;;;;;;;;;;;;
2024/02/28 05:49:07;;;;;;;20.7;13.5;;;;;;;;;;;;;
2024/02/28 05:51:32;;;;;;;24.1;14.1;;;;;;;;;;;;;
2024/02/28 05:53:57;;;;;;;23;14.4;;;;;;;;;;;;;
2024/02/28 05:56:22;;;;;;;25.8;16.2;;;;;;;;;;;;;
2024/02/28 05:58:48;;;;;;;25.1;15.4;;;;;;;;;;;;;
2024/02/28 06:01:12;;;;;;;26.4;16.9;;;;;;;;;;;;;
2024/02/28 06:03:38;;;;;;;26;16.4;;;;;;;;;;;;;
2024/02/28 06:06:04;;;;;;;24.9;16;;;;;;;;;;;;;
2024/02/28 06:08:28;;;;;;;25.3;16.4;;;;;;;;;;;;;
2024/02/28 06:10:54;;;;;;;24.4;15.7;;;;;;;;;;;;;
2024/02/28 06:13:18;;;;;;;24.7;16.3;;;;;;;;;;;;;
2024/02/28 06:15:44;;;;;;;25.8;16.3;;;;;;;;;;;;;
2024/02/28 06:18:09;;;;;;;26.7;16.8;;;;;;;;;;;;;
2024/02/28 06:20:34;;;;;;;25.2;16.2;;;;;;;;;;;;;
2024/02/28 06:22:59;;;;;;;27.2;17.5;;;;;;;;;;;;;
2024/02/28 06:25:24;;;;;;;28.2;17.6;;;;;;;;;;;;;
2024/02/28 06:27:49;;;;;;;25.6;17.5;;;;;;;;;;;;;
2024/02/28 06:30:15;;;;;;;26.7;17.6;;;;;;;;;;;;;
2024/02/28 06:32:40;;;;;;;28.5;18.6;;;;;;;;;;;;;
2024/02/28 06:35:05;;;;;;;29.6;18.3;;;;;;;;;;;;;
2024/02/28 06:37:30;;;;;;;30;18.5;;;;;;;;;;;;;
2024/02/28 06:39:55;;;;;;;28;18.8;;;;;;;;;;;;;
2024/02/28 06:42:20;;;;;;;29.8;19.5;;;;;;;;;;;;;
2024/02/28 06:44:46;;;;;;;30.4;19.4;;;;;;;;;;;;;
2024/02/28 06:47:11;;;;;;;28.3;18.4;;;;;;;;;;;;;
2024/02/28 06:49:36;;;;;;;29.8;19.1;;;;;;;;;;;;;
2024/02/28 06:52:01;;;;;;;32.7;19.5;;;;;;;;;;;;;
2024/02/28 06:54:26;;;;;;;28.9;18.7;;;;;;;;;;;;;
2024/02/28 06:56:52;;;;;;;29.2;18.9;;;;;;;;;;;;;
2024/02/28 06:59:17;;;;;;;31.3;20.2;;;;;;;;;;;;;
2024/02/28 07:01:42;;;;;;;30.4;19.2;;;;;;;;;;;;;
2024/02/28 07:04:07;;;;;;;31.3;19.5;;;;;;;;;;;;;
2024/02/28 07:06:32;;;;;;;30.4;19.1;;;;;;;;;;;;;
2024/02/28 07:08:57;;;;;;;29.6;19.1;;;;;;;;;;;;;
2024/02/28 07:11:23;;;;;;;33.3;20.2;;;;;;;;;;;;;
2024/02/28 07:13:47;;;;;;;34.9;21.4;;;;;;;;;;;;;
2024/02/28 07:16:12;;;;;;;36.1;20.8;;;;;;;;;;;;;
2024/02/28 07:18:38;;;;;;;30.9;20.5;;;;;;;;;;;;;
2024/02/28 07:21:03;;;;;;;34.9;22.1;;;;;;;;;;;;;
2024/02/28 07:23:28;;;;;;;31.6;21;;;;;;;;;;;;;
2024/02/28 07:25:53;;;;;;;34.4;21.1;;;;;;;;;;;;;
2024/02/28 07:28:18;;;;;;;31.1;20.4;;;;;;;;;;;;;
2024/02/28 07:30:45;;;;;;;34.2;20.8;;;;;;;;;;;;;
2024/02/28 07:33:11;;;;;;;35;20.8;;;;;;;;;;;;;
2024/02/28 07:35:33;;;;;;;34.3;21.5;;;;;;;;;;;;;
2024/02/28 07:37:59;;;;;;;42.1;25.8;;;;;;;;;;;;;
2024/02/28 07:40:24;;;;;;;39.2;23.6;;;;;;;;;;;;;
2024/02/28 07:42:49;;;;;;;34.7;22.1;;;;;;;;;;;;;
2024/02/28 07:45:14;;;;;;;31.2;21.4;;;;;;;;;;;;;
2024/02/28 07:47:40;;;;;;;36.2;22.9;;;;;;;;;;;;;
2024/02/28 07:50:05;;;;;;;33.7;21.2;;;;;;;;;;;;;
2024/02/28 07:52:30;;;;;;;34.3;21.4;;;;;;;;;;;;;
2024/02/28 07:54:54;;;;;;;36;22.6;;;;;;;;;;;;;
2024/02/28 07:57:20;;;;;;;33;21.8;;;;;;;;;;;;;
2024/02/28 07:59:45;;;;;;;35.7;23.2;;;;;;;;;;;;;
2024/02/28 08:02:11;;;;;;;36.6;21.7;;;;;;;;;;;;;
2024/02/28 08:04:36;;;;;;;40.8;24;;;;;;;;;;;;;
2024/02/28 08:07:00;;;;;;;40.5;25.7;;;;;;;;;;;;;
2024/02/28 08:09:25;;;;;;;33.1;21.5;;;;;;;;;;;;;
2024/02/28 08:11:51;;;;;;;36;22.1;;;;;;;;;;;;;
2024/02/28 08:14:16;;;;;;;37.8;22.4;;;;;;;;;;;;;
2024/02/28 08:16:41;;;;;;;36.6;22.3;;;;;;;;;;;;;
2024/02/28 08:19:06;;;;;;;35.1;21.6;;;;;;;;;;;;;
2024/02/28 08:21:31;;;;;;;40.6;23.6;;;;;;;;;;;;;
2024/02/28 08:23:57;;;;;;;41.5;23.8;;;;;;;;;;;;;
2024/02/28 08:26:21;;;;;;;39.5;23.4;;;;;;;;;;;;;
2024/02/28 08:28:46;;;;;;;36.9;22.4;;;;;;;;;;;;;
2024/02/28 08:31:12;;;;;;;38.9;23.5;;;;;;;;;;;;;
2024/02/28 08:33:36;;;;;;;40.5;23.8;;;;;;;;;;;;;
2024/02/28 08:36:01;;;;;;;38.3;22.8;;;;;;;;;;;;;
2024/02/28 08:38:27;;;;;;;41.9;24.1;;;;;;;;;;;;;
2024/02/28 08:40:52;;;;;;;38.5;22.2;;;;;;;;;;;;;
2024/02/28 08:43:17;;;;;;;42.2;24.4;;;;;;;;;;;;;
2024/02/28 08:45:42;;;;;;;38.7;23.7;;;;;;;;;;;;;
2024/02/28 08:48:07;;;;;;;40.5;23.4;;;;;;;;;;;;;
2024/02/28 08:50:33;;;;;;;38.6;23.6;;;;;;;;;;;;;
2024/02/28 08:52:58;;;;;;;39.4;23.5;;;;;;;;;;;;;
2024/02/28 08:55:25;;;;;;;36.7;22.8;;;;;;;;;;;;;
2024/02/28 08:57:48;;;;;;;39.5;24.3;;;;;;;;;;;;;
2024/02/28 09:00:15;;;;;;;39.5;23.8;;;;;;;;;;;;;
2024/02/28 09:02:39;;;;;;;39;23.3;;;;;;;;;;;;;
2024/02/28 09:05:04;;;;;;;39.8;23.3;;;;;;;;;;;;;
2024/02/28 09:07:29;;;;;;;37;23.1;;;;;;;;;;;;;
2024/02/28 09:09:54;;;;;;;40.4;23.3;;;;;;;;;;;;;
2024/02/28 09:12:19;;;;;;;39.3;23.7;;;;;;;;;;;;;
2024/02/28 09:14:45;;;;;;;41.8;24;;;;;;;;;;;;;
2024/02/28 09:17:09;;;;;;;40.6;24.1;;;;;;;;;;;;;
2024/02/28 09:19:34;;;;;;;40.9;24.3;;;;;;;;;;;;;
2024/02/28 09:21:59;;;;;;;42.3;24.5;;;;;;;;;;;;;
2024/02/28 09:24:25;;;;;;;42.6;24.9;;;;;;;;;;;;;
2024/02/28 09:26:50;;;;;;;45;25.8;;;;;;;;;;;;;
2024/02/28 09:29:15;;;;;;;41.8;23.9;;;;;;;;;;;;;
2024/02/28 09:31:40;;;;;;;43;23.1;;;;;;;;;;;;;
2024/02/28 09:34:07;;;;;;;42.6;23.9;;;;;;;;;;;;;
2024/02/28 09:36:30;;;;;;;40;24.3;;;;;;;;;;;;;
2024/02/28 09:38:56;;;;;;;44.9;25.5;;;;;;;;;;;;;
2024/02/28 09:41:21;;;;;;;43.7;25.1;;;;;;;;;;;;;
2024/02/28 09:43:45;;;;;;;43.5;24.9;;;;;;;;;;;;;
2024/02/28 09:46:11;;;;;;;43.2;24.5;;;;;;;;;;;;;
2024/02/28 09:48:35;;;;;;;42.5;24.1;;;;;;;;;;;;;
2024/02/28 09:51:00;;;;;;;43.3;25.2;;;;;;;;;;;;;
2024/02/28 09:53:26;;;;;;;44.5;24.2;;;;;;;;;;;;;
2024/02/28 09:55:51;;;;;;;42.8;23.5;;;;;;;;;;;;;
2024/02/28 09:58:16;;;;;;;42.6;23.3;;;;;;;;;;;;;
2024/02/28 10:00:43;;;;;;;43.3;24.4;;;;;;;;;;;;;
2024/02/28 10:03:07;;;;;;;39;22.8;;;;;;;;;;;;;
2024/02/28 10:05:31;;;;;;;43.9;23.1;;;;;;;;;;;;;
2024/02/28 10:07:56;;;;;;;42.2;23.5;;;;;;;;;;;;;
2024/02/28 10:10:21;;;;;;;38.9;23.2;;;;;;;;;;;;;
2024/02/28 10:12:46;;;;;;;37.7;22.2;;;;;;;;;;;;;
2024/02/28 10:15:12;;;;;;;37.6;22.2;;;;;;;;;;;;;
2024/02/28 10:17:37;;;;;;;40.9;22.8;;;;;;;;;;;;;
2024/02/28 10:20:04;;;;;;;39;22.5;;;;;;;;;;;;;
2024/02/28 10:22:27;;;;;;;40.7;21.9;;;;;;;;;;;;;
2024/02/28 10:24:52;;;;;;;37.1;21.1;;;;;;;;;;;;;
2024/02/28 10:27:19;;;;;;;37.9;22.4;;;;;;;;;;;;;
2024/02/28 10:29:44;;;;;;;38.5;22.7;;;;;;;;;;;;;
2024/02/28 10:32:07;;;;;;;40.5;22.5;;;;;;;;;;;;;
2024/02/28 10:34:34;;;;;;;34;20.3;;;;;;;;;;;;;
2024/02/28 10:36:58;;;;;;;39.7;21.8;;;;;;;;;;;;;
2024/02/28 10:39:23;;;;;;;39.8;22.2;;;;;;;;;;;;;
2024/02/28 10:41:48;;;;;;;32.4;20;;;;;;;;;;;;;
2024/02/28 10:44:14;;;;;;;35.7;19.4;;;;;;;;;;;;;
2024/02/28 10:46:38;;;;;;;32;19.9;;;;;;;;;;;;;
2024/02/28 10:49:03;;;;;;;37.1;20.4;;;;;;;;;;;;;
2024/02/28 10:51:58;;;;;;;32.3;19.2;;;;;;;;;;;;;
2024/02/28 10:54:23;;;;;;;32.7;18.1;;;;;;;;;;;;;
2024/02/28 10:56:49;;;;;;;32.3;18.2;;;;;;;;;;;;;
2024/02/28 10:59:14;;;;;;;30.3;17.9;;;;;;;;;;;;;
2024/02/28 11:01:41;;;;;;;33.6;19.2;;;;;;;;;;;;;
2024/02/28 11:04:05;;;;;;;35.2;19.8;;;;;;;;;;;;;
2024/02/28 11:06:29;;;;;;;37.7;20.2;;;;;;;;;;;;;
2024/02/28 11:08:56;;;;;;;38.5;20.7;;;;;;;;;;;;;
2024/02/28 11:11:20;;;;;;;38.1;22;;;;;;;;;;;;;
2024/02/28 11:13:44;;;;;;;44.1;21.5;;;;;;;;;;;;;
2024/02/28 11:16:10;;;;;;;37.4;20.9;;;;;;;;;;;;;
2024/02/28 11:18:35;;;;;;;38.8;21.6;;;;;;;;;;;;;
2024/02/28 11:21:00;;;;;;;37.9;21.6;;;;;;;;;;;;;
2024/02/28 11:23:26;;;;;;;39.8;21.9;;;;;;;;;;;;;
2024/02/28 11:25:50;;;;;;;39.4;21;;;;;;;;;;;;;
2024/02/28 11:28:15;;;;;;;35.8;19.7;;;;;;;;;;;;;
2024/02/28 11:30:41;;;;;;;33.4;19.1;;;;;;;;;;;;;
2024/02/28 11:33:08;;;;;;;32.9;19.6;;;;;;;;;;;;;
2024/02/28 11:35:31;;;;;;;35.5;20.4;;;;;;;;;;;;;
2024/02/28 11:37:57;;;;;;;38.1;21.8;;;;;;;;;;;;;
2024/02/28 11:40:20;;;;;;;36.1;20.7;;;;;;;;;;;;;
2024/02/28 11:42:46;;;;;;;36.4;20.3;;;;;;;;;;;;;
2024/02/28 11:45:11;;;;;;;35.1;19.5;;;;;;;;;;;;;
2024/02/28 11:47:36;;;;;;;37.4;20.3;;;;;;;;;;;;;
2024/02/28 11:50:02;;;;;;;36.8;20.3;;;;;;;;;;;;;
2024/02/28 11:52:26;;;;;;;39.3;20.6;;;;;;;;;;;;;
2024/02/28 11:54:52;;;;;;;35.7;20.4;;;;;;;;;;;;;
2024/02/28 11:57:17;;;;;;;35.6;20;;;;;;;;;;;;;
2024/02/28 11:59:41;;;;;;;33.6;19.7;;;;;;;;;;;;;
2024/02/28 12:02:06;;;;;;;34.3;19.5;;;;;;;;;;;;;
2024/02/28 12:04:32;;;;;;;29.6;17.9;;;;;;;;;;;;;
2024/02/28 12:06:57;;;;;;;30.7;17.6;;;;;;;;;;;;;
2024/02/28 12:09:22;;;;;;;33.4;19.3;;;;;;;;;;;;;
2024/02/28 12:11:47;;;;;;;30.5;17.5;;;;;;;;;;;;;
2024/02/28 12:14:12;;;;;;;28.3;17.1;;;;;;;;;;;;;
2024/02/28 12:16:37;;;;;;;28.9;16.4;;;;;;;;;;;;;
2024/02/28 12:19:02;;;;;;;26.7;16.2;;;;;;;;;;;;;
2024/02/28 12:21:27;;;;;;;31;16.9;;;;;;;;;;;;;
2024/02/28 12:23:52;;;;;;;28.6;16.4;;;;;;;;;;;;;
2024/02/28 12:26:17;;;;;;;29;17.5;;;;;;;;;;;;;
2024/02/28 12:28:43;;;;;;;34.3;19.1;;;;;;;;;;;;;
2024/02/28 12:31:11;;;;;;;33;18.9;;;;;;;;;;;;;
2024/02/28 12:33:33;;;;;;;34.7;18.9;;;;;;;;;;;;;
2024/02/28 12:36:01;;;;;;;35.4;18.8;;;;;;;;;;;;;
2024/02/28 12:38:23;;;;;;;29.9;18.3;;;;;;;;;;;;;
2024/02/28 12:40:48;;;;;;;31.7;19;;;;;;;;;;;;;
2024/02/28 12:43:14;;;;;;;30;18.5;;;;;;;;;;;;;
2024/02/28 12:45:39;;;;;;;34.7;20;;;;;;;;;;;;;
2024/02/28 12:48:05;;;;;;;35.1;19.4;;;;;;;;;;;;;
2024/02/28 12:50:28;;;;;;;32.7;18.9;;;;;;;;;;;;;
2024/02/28 12:52:54;;;;;;;34.1;20;;;;;;;;;;;;;
2024/02/28 12:55:19;;;;;;;29.9;17.9;;;;;;;;;;;;;
2024/02/28 12:57:45;;;;;;;35;19.3;;;;;;;;;;;;;
2024/02/28 13:00:09;;;;;;;34.6;19.9;;;;;;;;;;;;;
2024/02/28 13:02:34;;;;;;;36.8;19.7;;;;;;;;;;;;;
2024/02/28 13:04:59;;;;;;;32.9;18.7;;;;;;;;;;;;;
2024/02/28 13:07:25;;;;;;;36;20.3;;;;;;;;;;;;;
2024/02/28 13:09:50;;;;;;;36.6;19.8;;;;;;;;;;;;;
2024/02/28 13:12:15;;;;;;;33.1;19.5;;;;;;;;;;;;;
2024/02/28 13:14:40;;;;;;;34.8;19.5;;;;;;;;;;;;;
2024/02/28 13:17:06;;;;;;;35;20.1;;;;;;;;;;;;;
2024/02/28 13:19:30;;;;;;;32.5;19.2;;;;;;;;;;;;;
2024/02/28 13:21:56;;;;;;;31.8;20;;;;;;;;;;;;;
2024/02/28 13:24:21;;;;;;;30.5;18.8;;;;;;;;;;;;;
2024/02/28 13:26:46;;;;;;;30.3;18.8;;;;;;;;;;;;;
2024/02/28 13:29:11;;;;;;;32.7;18.9;;;;;;;;;;;;;
2024/02/28 13:31:36;;;;;;;31.3;18.8;;;;;;;;;;;;;
2024/02/28 13:34:03;;;;;;;33.4;19.9;;;;;;;;;;;;;
2024/02/28 13:36:26;;;;;;;32.1;19.4;;;;;;;;;;;;;
2024/02/28 13:38:51;;;;;;;34.2;19.9;;;;;;;;;;;;;
2024/02/28 13:41:17;;;;;;;35.7;21.1;;;;;;;;;;;;;
2024/02/28 13:43:41;;;;;;;36.1;19.5;;;;;;;;;;;;;
2024/02/28 13:46:06;;;;;;;32.2;19.8;;;;;;;;;;;;;
2024/02/28 13:48:33;;;;;;;32.5;20.3;;;;;;;;;;;;;
2024/02/28 13:50:57;;;;;;;37.5;21.4;;;;;;;;;;;;;
2024/02/28 13:53:22;;;;;;;39;21.6;;;;;;;;;;;;;
2024/02/28 13:55:47;;;;;;;37;21.3;;;;;;;;;;;;;
2024/02/28 13:58:12;;;;;;;35.1;20.8;;;;;;;;;;;;;
2024/02/28 14:00:37;;;;;;;39.2;21.5;;;;;;;;;;;;;
2024/02/28 14:03:02;;;;;;;38.3;22.3;;;;;;;;;;;;;
2024/02/28 14:05:28;;;;;;;37;22;;;;;;;;;;;;;
2024/02/28 14:07:52;;;;;;;38;21.2;;;;;;;;;;;;;
2024/02/28 14:10:18;;;;;;;37.7;21.7;;;;;;;;;;;;;
2024/02/28 14:12:43;;;;;;;39.8;23.4;;;;;;;;;;;;;
2024/02/28 14:15:10;;;;;;;39.2;22.9;;;;;;;;;;;;;
2024/02/28 14:17:33;;;;;;;38.2;22.1;;;;;;;;;;;;;
2024/02/28 14:19:58;;;;;;;37.2;21.6;;;;;;;;;;;;;
2024/02/28 14:22:24;;;;;;;38;22.4;;;;;;;;;;;;;
2024/02/28 14:24:48;;;;;;;38.6;22.2;;;;;;;;;;;;;
2024/02/28 14:27:14;;;;;;;39.6;23.1;;;;;;;;;;;;;
2024/02/28 14:29:39;;;;;;;37.9;21.5;;;;;;;;;;;;;
2024/02/28 14:32:04;;;;;;;36.9;22.1;;;;;;;;;;;;;
2024/02/28 14:34:31;;;;;;;36.2;20.8;;;;;;;;;;;;;
2024/02/28 14:36:54;;;;;;;38.9;20.9;;;;;;;;;;;;;
2024/02/28 14:39:19;;;;;;;35.6;21.5;;;;;;;;;;;;;
2024/02/28 14:41:44;;;;;;;36.3;20.9;;;;;;;;;;;;;
2024/02/28 14:44:10;;;;;;;37.6;21.1;;;;;;;;;;;;;
2024/02/28 14:46:34;;;;;;;39.3;20.7;;;;;;;;;;;;;
2024/02/28 14:49:00;;;;;;;33.2;20;;;;;;;;;;;;;
2024/02/28 14:51:25;;;;;;;33.5;20;;;;;;;;;;;;;
2024/02/28 14:53:50;;;;;;;33.7;19.3;;;;;;;;;;;;;
2024/02/28 14:56:16;;;;;;;35;20.8;;;;;;;;;;;;;
2024/02/28 14:58:40;;;;;;;35.5;19.6;;;;;;;;;;;;;
2024/02/28 15:01:05;;;;;;;32.4;19.1;;;;;;;;;;;;;
2024/02/28 15:03:33;;;;;;;33;19.1;;;;;;;;;;;;;
2024/02/28 15:05:55;;;;;;;30.8;18.5;;;;;;;;;;;;;
2024/02/28 15:08:21;;;;;;;32.1;19.5;;;;;;;;;;;;;
2024/02/28 15:10:46;;;;;;;29.5;19.3;;;;;;;;;;;;;
2024/02/28 15:13:11;;;;;;;29.6;18.1;;;;;;;;;;;;;
2024/02/28 15:15:36;;;;;;;27.7;17.5;;;;;;;;;;;;;
2024/02/28 15:18:02;;;;;;;28;18.3;;;;;;;;;;;;;
2024/02/28 15:20:26;;;;;;;28.9;18.2;;;;;;;;;;;;;
2024/02/28 15:22:52;;;;;;;31.5;19.1;;;;;;;;;;;;;
2024/02/28 15:25:17;;;;;;;32;18.8;;;;;;;;;;;;;
2024/02/28 15:27:42;;;;;;;32.2;19.5;;;;;;;;;;;;;
2024/02/28 15:30:09;;;;;;;37;20.5;;;;;;;;;;;;;
2024/02/28 15:32:33;;;;;;;34.8;21;;;;;;;;;;;;;
2024/02/28 15:34:57;;;;;;;34;20.4;;;;;;;;;;;;;
2024/02/28 15:37:22;;;;;;;36.4;21.2;;;;;;;;;;;;;
2024/02/28 15:39:48;;;;;;;34;20.7;;;;;;;;;;;;;
2024/02/28 15:42:12;;;;;;;35;20.1;;;;;;;;;;;;;
2024/02/28 15:44:38;;;;;;;35.2;21.7;;;;;;;;;;;;;
2024/02/28 15:47:03;;;;;;;35.7;21;;;;;;;;;;;;;
2024/02/28 15:49:28;;;;;;;36.3;21.2;;;;;;;;;;;;;
2024/02/28 15:51:53;;;;;;;35.3;21.3;;;;;;;;;;;;;
2024/02/28 15:54:18;;;;;;;36.9;22.8;;;;;;;;;;;;;
2024/02/28 15:56:43;;;;;;;38.4;22;;;;;;;;;;;;;
2024/02/28 15:59:11;;;;;;;34.7;21.3;;;;;;;;;;;;;
2024/02/28 16:01:34;;;;;;;35.3;21.5;;;;;;;;;;;;;
2024/02/28 16:03:59;;;;;;;37.6;22;;;;;;;;;;;;;
2024/02/28 16:06:25;;;;;;;37.6;22.2;;;;;;;;;;;;;
2024/02/28 16:08:49;;;;;;;35.4;21.8;;;;;;;;;;;;;
2024/02/28 16:11:14;;;;;;;38.5;22.9;;;;;;;;;;;;;
2024/02/28 16:13:41;;;;;;;36.8;22.3;;;;;;;;;;;;;
2024/02/28 16:16:05;;;;;;;39.2;22.9;;;;;;;;;;;;;
2024/02/28 16:18:31;;;;;;;38.3;23.3;;;;;;;;;;;;;
2024/02/28 16:20:55;;;;;;;42;23.7;;;;;;;;;;;;;
2024/02/28 16:23:20;;;;;;;40.1;23.3;;;;;;;;;;;;;
2024/02/28 16:25:46;;;;;;;39.6;23.4;;;;;;;;;;;;;
2024/02/28 16:28:10;;;;;;;42.4;22.8;;;;;;;;;;;;;
2024/02/28 16:30:35;;;;;;;40.1;23.4;;;;;;;;;;;;;
2024/02/28 16:33:00;;;;;;;43.2;24.2;;;;;;;;;;;;;
2024/02/28 16:35:26;;;;;;;42.9;24.7;;;;;;;;;;;;;
2024/02/28 16:37:51;;;;;;;41.8;23.8;;;;;;;;;;;;;
2024/02/28 16:40:16;;;;;;;41.4;23.6;;;;;;;;;;;;;
2024/02/28 16:42:41;;;;;;;39.4;23.5;;;;;;;;;;;;;
2024/02/28 16:45:06;;;;;;;39.9;23.6;;;;;;;;;;;;;
2024/02/28 16:47:31;;;;;;;42.6;23.8;;;;;;;;;;;;;
2024/02/28 16:49:56;;;;;;;40.2;23.8;;;;;;;;;;;;;
2024/02/28 16:52:21;;;;;;;42.3;23.9;;;;;;;;;;;;;
2024/02/28 16:54:49;;;;;;;38.1;22.5;;;;;;;;;;;;;
2024/02/28 16:57:12;;;;;;;41.3;23.5;;;;;;;;;;;;;
2024/02/28 16:59:38;;;;;;;38.9;23.6;;;;;;;;;;;;;
2024/02/28 17:02:01;;;;;;;43.9;24.2;;;;;;;;;;;;;
2024/02/28 17:04:28;;;;;;;37.7;22.8;;;;;;;;;;;;;
2024/02/28 17:06:52;;;;;;;41.6;24;;;;;;;;;;;;;
2024/02/28 17:09:17;;;;;;;39.4;24;;;;;;;;;;;;;
2024/02/28 17:11:42;;;;;;;41.6;23.6;;;;;;;;;;;;;
2024/02/28 17:14:07;;;;;;;44.5;25;;;;;;;;;;;;;
2024/02/28 17:16:33;;;;;;;42;23.7;;;;;;;;;;;;;
2024/02/28 17:18:57;;;;;;;41.6;24.9;;;;;;;;;;;;;
2024/02/28 17:21:23;;;;;;;42.6;24.3;;;;;;;;;;;;;
2024/02/28 17:23:48;;;;;;;47.2;25.8;;;;;;;;;;;;;
2024/02/28 17:26:13;;;;;;;42;24.7;;;;;;;;;;;;;
2024/02/28 17:28:38;;;;;;;44.5;25.1;;;;;;;;;;;;;
2024/02/28 17:31:03;;;;;;;43.8;25;;;;;;;;;;;;;
2024/02/28 17:33:28;;;;;;;46.9;25.6;;;;;;;;;;;;;
2024/02/28 17:35:53;;;;;;;44.8;25.1;;;;;;;;;;;;;
2024/02/28 17:38:18;;;;;;;44.6;25.4;;;;;;;;;;;;;
2024/02/28 17:40:43;;;;;;;42.7;24.6;;;;;;;;;;;;;
2024/02/28 17:43:09;;;;;;;47.3;26;;;;;;;;;;;;;
2024/02/28 17:45:34;;;;;;;46.5;25.7;;;;;;;;;;;;;
2024/02/28 17:47:59;;;;;;;47.1;25.6;;;;;;;;;;;;;
2024/02/28 17:50:25;;;;;;;42.5;25.4;;;;;;;;;;;;;
2024/02/28 17:52:49;;;;;;;44;25.3;;;;;;;;;;;;;
2024/02/28 17:55:14;;;;;;;49.5;26.1;;;;;;;;;;;;;
2024/02/28 17:57:39;;;;;;;46;25.9;;;;;;;;;;;;;
2024/02/28 18:00:06;;;;;;;45.2;25.7;;;;;;;;;;;;;
2024/02/28 18:02:29;;;;;;;50.3;28.2;;;;;;;;;;;;;
2024/02/28 18:04:54;;;;;;;47.1;28.1;;;;;;;;;;;;;
2024/02/28 18:07:20;;;;;;;51.1;28.2;;;;;;;;;;;;;
2024/02/28 18:09:45;;;;;;;47.9;26.3;;;;;;;;;;;;;
2024/02/28 18:12:10;;;;;;;43.8;26;;;;;;;;;;;;;
2024/02/28 18:14:35;;;;;;;45.2;26.2;;;;;;;;;;;;;
2024/02/28 18:17:00;;;;;;;46.5;26.3;;;;;;;;;;;;;
2024/02/28 18:19:25;;;;;;;43.1;25.2;;;;;;;;;;;;;
2024/02/28 18:21:50;;;;;;;47;26.6;;;;;;;;;;;;;
2024/02/28 18:24:15;;;;;;;45.2;26.4;;;;;;;;;;;;;
2024/02/28 18:26:40;;;;;;;47.2;26.6;;;;;;;;;;;;;
2024/02/28 18:29:05;;;;;;;48.5;27.2;;;;;;;;;;;;;
2024/02/28 18:31:30;;;;;;;47.1;26.9;;;;;;;;;;;;;
2024/02/28 18:33:56;;;;;;;46.3;26.9;;;;;;;;;;;;;
2024/02/28 18:36:22;;;;;;;46.6;26.7;;;;;;;;;;;;;
2024/02/28 18:38:46;;;;;;;50.3;27.4;;;;;;;;;;;;;
2024/02/28 18:41:11;;;;;;;45.6;25.5;;;;;;;;;;;;;
2024/02/28 18:43:36;;;;;;;52;27.9;;;;;;;;;;;;;
2024/02/28 18:46:01;;;;;;;47.9;27;;;;;;;;;;;;;
2024/02/28 18:48:27;;;;;;;49.2;26.5;;;;;;;;;;;;;
2024/02/28 18:50:51;;;;;;;53.9;30.1;;;;;;;;;;;;;
2024/02/28 18:53:16;;;;;;;54.1;29.2;;;;;;;;;;;;;
2024/02/28 18:55:42;;;;;;;49.5;27.1;;;;;;;;;;;;;
2024/02/28 18:58:07;;;;;;;52.4;27.2;;;;;;;;;;;;;
2024/02/28 19:00:32;;;;;;;51.6;28;;;;;;;;;;;;;
2024/02/28 19:02:57;;;;;;;51.7;28.3;;;;;;;;;;;;;
2024/02/28 19:05:22;;;;;;;50.8;27.5;;;;;;;;;;;;;
2024/02/28 19:07:49;;;;;;;51.3;27.6;;;;;;;;;;;;;
2024/02/28 19:10:12;;;;;;;47.5;27.8;;;;;;;;;;;;;
2024/02/28 19:12:37;;;;;;;51.7;27.5;;;;;;;;;;;;;
2024/02/28 19:15:03;;;;;;;47.9;26.1;;;;;;;;;;;;;
2024/02/28 19:17:27;;;;;;;49.8;28.3;;;;;;;;;;;;;
2024/02/28 19:19:53;;;;;;;49.9;27.3;;;;;;;;;;;;;
2024/02/28 19:22:21;;;;;;;47.2;26.8;;;;;;;;;;;;;
2024/02/28 19:24:43;;;;;;;51.3;28.1;;;;;;;;;;;;;
2024/02/28 19:27:08;;;;;;;48;25.9;;;;;;;;;;;;;
2024/02/28 19:29:33;;;;;;;51.4;27.8;;;;;;;;;;;;;
2024/02/28 19:31:58;;;;;;;56.4;28.8;;;;;;;;;;;;;
2024/02/28 19:34:23;;;;;;;54.6;28.3;;;;;;;;;;;;;
2024/02/28 19:36:48;;;;;;;57.8;28.7;;;;;;;;;;;;;
2024/02/28 19:39:14;;;;;;;54.5;28.4;;;;;;;;;;;;;
2024/02/28 19:41:39;;;;;;;50.5;27.7;;;;;;;;;;;;;
2024/02/28 19:44:04;;;;;;;50.8;27.7;;;;;;;;;;;;;